sensor_id;sensor_type;location;lat;lon;timestamp;pressure;altitude;pressure_sealevel;temperature;humidity
53300;BME280;39187;48.476;8.310;2023-04-30T00:01:38;91475.00;;;7.11;100.00
53300;BME280;39187;48.476;8.310;2023-04-30T00:04:04;91471.69;;;6.97;100.00
53300;BME280;39187;48.476;8.310;2023-04-30T00:06:29;91463.97;;;7.27;100.00
53300;BME280;39187;48.476;8.310;2023-04-30T00:08:55;91468.16;;;7.24;100.00
53300;BME280;39187;48.476;8.310;2023-04-30T00:11:20;91476.06;;;7.35;100.00
53300;BME280;39187;48.476;8.310;2023-04-30T00:13:46;91475.38;;;7.20;100.00
53300;BME280;39187;48.476;8.310;2023-04-30T00:16:12;91477.69;;;7.08;100.00
53300;BME280;39187;48.476;8.310;2023-04-30T00:18:37;91474.94;;;7.33;100.00
53300;BME280;39187;48.476;8.310;2023-04-30T00:21:03;91480.97;;;7.33;100.00
53300;BME280;39187;48.476;8.310;2023-04-30T00:23:28;91476.09;;;7.24;100.00
53300;BME280;39187;48.476;8.310;2023-04-30T00:25:54;91476.38;;;7.44;100.00
53300;BME280;39187;48.476;8.310;2023-04-30T00:28:20;91475.22;;;7.49;100.00
53300;BME280;39187;48.476;8.310;2023-04-30T00:30:45;91473.84;;;7.23;100.00
53300;BME280;39187;48.476;8.310;2023-04-30T00:33:11;91481.44;;;7.14;100.00
53300;BME280;39187;48.476;8.310;2023-04-30T00:35:37;91481.84;;;7.09;100.00
53300;BME280;39187;48.476;8.310;2023-04-30T00:38:02;91475.06;;;7.01;100.00
53300;BME280;39187;48.476;8.310;2023-04-30T00:40:28;91478.34;;;7.30;100.00
53300;BME280;39187;48.476;8.310;2023-04-30T00:42:54;91483.72;;;7.05;100.00
53300;BME280;39187;48.476;8.310;2023-04-30T00:45:23;91473.63;;;6.78;100.00
53300;BME280;39187;48.476;8.310;2023-04-30T00:47:48;91470.59;;;6.83;100.00
53300;BME280;39187;48.476;8.310;2023-04-30T00:50:14;91472.91;;;6.71;100.00
53300;BME280;39187;48.476;8.310;2023-04-30T00:52:41;91471.31;;;6.88;100.00
53300;BME280;39187;48.476;8.310;2023-04-30T00:55:08;91465.34;;;6.62;100.00
53300;BME280;39187;48.476;8.310;2023-04-30T00:57:34;91457.00;;;6.74;100.00
53300;BME280;39187;48.476;8.310;2023-04-30T01:00:01;91463.69;;;7.07;100.00
53300;BME280;39187;48.476;8.310;2023-04-30T01:02:26;91458.13;;;6.80;100.00
53300;BME280;39187;48.476;8.310;2023-04-30T01:04:53;91459.66;;;6.78;100.00
53300;BME280;39187;48.476;8.310;2023-04-30T01:07:19;91455.06;;;6.89;100.00
53300;BME280;39187;48.476;8.310;2023-04-30T01:09:45;91453.50;;;7.06;100.00
53300;BME280;39187;48.476;8.310;2023-04-30T01:12:26;91449.31;;;7.05;100.00
53300;BME280;39187;48.476;8.310;2023-04-30T01:15:03;91444.69;;;7.27;100.00
53300;BME280;39187;48.476;8.310;2023-04-30T01:17:35;91435.44;;;6.90;100.00
53300;BME280;39187;48.476;8.310;2023-04-30T01:20:02;91431.31;;;6.75;100.00
53300;BME280;39187;48.476;8.310;2023-04-30T01:22:54;91433.97;;;6.78;100.00
53300;BME280;39187;48.476;8.310;2023-04-30T01:28:09;91434.97;;;7.06;100.00
53300;BME280;39187;48.476;8.310;2023-04-30T01:30:37;91425.59;;;6.91;100.00
53300;BME280;39187;48.476;8.310;2023-04-30T01:33:05;91423.78;;;6.70;100.00
53300;BME280;39187;48.476;8.310;2023-04-30T01:36:07;91415.72;;;6.98;100.00
53300;BME280;39187;48.476;8.310;2023-04-30T01:39:01;91425.28;;;6.78;100.00
53300;BME280;39187;48.476;8.310;2023-04-30T01:46:31;91421.44;;;6.86;100.00
53300;BME280;39187;48.476;8.310;2023-04-30T01:49:20;91424.53;;;6.67;100.00
53300;BME280;39187;48.476;8.310;2023-04-30T01:51:57;91429.34;;;6.97;100.00
53300;BME280;39187;48.476;8.310;2023-04-30T01:54:30;91440.34;;;6.81;100.00
53300;BME280;39187;48.476;8.310;2023-04-30T01:57:02;91422.28;;;6.65;100.00
53300;BME280;39187;48.476;8.310;2023-04-30T01:59:32;91416.19;;;6.82;100.00
53300;BME280;39187;48.476;8.310;2023-04-30T02:01:59;91424.44;;;6.92;100.00
53300;BME280;39187;48.476;8.310;2023-04-30T02:04:24;91435.81;;;6.81;100.00
53300;BME280;39187;48.476;8.310;2023-04-30T02:06:50;91430.25;;;6.55;100.00
53300;BME280;39187;48.476;8.310;2023-04-30T02:09:16;91416.59;;;6.70;100.00
53300;BME280;39187;48.476;8.310;2023-04-30T02:11:41;91422.66;;;6.71;100.00
53300;BME280;39187;48.476;8.310;2023-04-30T02:14:07;91424.13;;;6.75;100.00
53300;BME280;39187;48.476;8.310;2023-04-30T02:16:32;91416.31;;;6.40;100.00
53300;BME280;39187;48.476;8.310;2023-04-30T02:18:58;91438.19;;;6.40;100.00
53300;BME280;39187;48.476;8.310;2023-04-30T02:21:23;91426.09;;;6.57;100.00
53300;BME280;39187;48.476;8.310;2023-04-30T02:23:49;91422.72;;;6.50;100.00
53300;BME280;39187;48.476;8.310;2023-04-30T02:26:14;91432.47;;;6.70;100.00
53300;BME280;39187;48.476;8.310;2023-04-30T02:28:40;91432.88;;;6.62;100.00
53300;BME280;39187;48.476;8.310;2023-04-30T02:31:06;91430.94;;;6.73;100.00
53300;BME280;39187;48.476;8.310;2023-04-30T02:33:32;91446.91;;;6.37;100.00
53300;BME280;39187;48.476;8.310;2023-04-30T02:35:59;91437.03;;;6.56;100.00
53300;BME280;39187;48.476;8.310;2023-04-30T02:38:25;91429.88;;;6.56;100.00
53300;BME280;39187;48.476;8.310;2023-04-30T02:40:50;91449.19;;;6.25;100.00
53300;BME280;39187;48.476;8.310;2023-04-30T02:43:16;91439.00;;;6.23;100.00
53300;BME280;39187;48.476;8.310;2023-04-30T02:45:41;91449.94;;;6.36;100.00
53300;BME280;39187;48.476;8.310;2023-04-30T02:48:07;91434.84;;;6.29;100.00
53300;BME280;39187;48.476;8.310;2023-04-30T02:50:33;91431.81;;;6.24;100.00
53300;BME280;39187;48.476;8.310;2023-04-30T02:52:58;91416.31;;;6.40;100.00
53300;BME280;39187;48.476;8.310;2023-04-30T02:55:24;91431.84;;;6.06;100.00
53300;BME280;39187;48.476;8.310;2023-04-30T02:57:49;91427.66;;;6.30;100.00
53300;BME280;39187;48.476;8.310;2023-04-30T03:00:15;91423.53;;;6.18;100.00
53300;BME280;39187;48.476;8.310;2023-04-30T03:02:42;91414.84;;;6.11;100.00
53300;BME280;39187;48.476;8.310;2023-04-30T03:05:07;91422.78;;;6.14;100.00
53300;BME280;39187;48.476;8.310;2023-04-30T03:07:33;91417.06;;;6.37;100.00
53300;BME280;39187;48.476;8.310;2023-04-30T03:09:59;91427.19;;;6.63;100.00
53300;BME280;39187;48.476;8.310;2023-04-30T03:12:24;91418.19;;;6.43;100.00
53300;BME280;39187;48.476;8.310;2023-04-30T03:14:50;91422.72;;;6.42;100.00
53300;BME280;39187;48.476;8.310;2023-04-30T03:17:16;91430.28;;;6.37;100.00
53300;BME280;39187;48.476;8.310;2023-04-30T03:19:42;91427.66;;;6.23;100.00
53300;BME280;39187;48.476;8.310;2023-04-30T03:22:07;91422.75;;;6.32;100.00
53300;BME280;39187;48.476;8.310;2023-04-30T03:24:33;91429.97;;;6.10;100.00
53300;BME280;39187;48.476;8.310;2023-04-30T03:26:58;91414.81;;;6.28;100.00
53300;BME280;39187;48.476;8.310;2023-04-30T03:29:24;91416.31;;;6.43;100.00
53300;BME280;39187;48.476;8.310;2023-04-30T03:31:49;91414.09;;;6.10;100.00
53300;BME280;39187;48.476;8.310;2023-04-30T03:34:15;91405.03;;;6.11;100.00
53300;BME280;39187;48.476;8.310;2023-04-30T03:36:41;91401.63;;;6.18;100.00
53300;BME280;39187;48.476;8.310;2023-04-30T03:39:06;91408.06;;;5.95;100.00
53300;BME280;39187;48.476;8.310;2023-04-30T03:41:34;91403.88;;;6.23;100.00
53300;BME280;39187;48.476;8.310;2023-04-30T03:44:00;91399.78;;;6.04;100.00
53300;BME280;39187;48.476;8.310;2023-04-30T03:46:25;91406.94;;;5.86;100.00
53300;BME280;39187;48.476;8.310;2023-04-30T03:48:51;91402.78;;;6.20;100.00
53300;BME280;39187;48.476;8.310;2023-04-30T03:51:19;91410.34;;;6.00;100.00
53300;BME280;39187;48.476;8.310;2023-04-30T03:53:44;91416.34;;;6.33;100.00
53300;BME280;39187;48.476;8.310;2023-04-30T03:56:10;91408.78;;;6.28;100.00
53300;BME280;39187;48.476;8.310;2023-04-30T03:58:36;91411.88;;;5.94;100.00
53300;BME280;39187;48.476;8.310;2023-04-30T04:01:02;91413.31;;;6.38;100.00
53300;BME280;39187;48.476;8.310;2023-04-30T04:03:28;91410.31;;;6.25;100.00
53300;BME280;39187;48.476;8.310;2023-04-30T04:05:54;91413.38;;;6.06;100.00
53300;BME280;39187;48.476;8.310;2023-04-30T04:08:19;91417.88;;;6.02;100.00
53300;BME280;39187;48.476;8.310;2023-04-30T04:10:45;91419.44;;;5.89;100.00
53300;BME280;39187;48.476;8.310;2023-04-30T04:13:10;91409.22;;;5.94;100.00
53300;BME280;39187;48.476;8.310;2023-04-30T04:15:36;91426.94;;;5.90;100.00
53300;BME280;39187;48.476;8.310;2023-04-30T04:18:02;91431.84;;;5.81;100.00
53300;BME280;39187;48.476;8.310;2023-04-30T04:20:27;91413.72;;;5.83;100.00
53300;BME280;39187;48.476;8.310;2023-04-30T04:22:54;91416.41;;;6.01;100.00
53300;BME280;39187;48.476;8.310;2023-04-30T04:25:20;91428.06;;;5.64;100.00
53300;BME280;39187;48.476;8.310;2023-04-30T04:27:49;91440.50;;;5.78;100.00
53300;BME280;39187;48.476;8.310;2023-04-30T04:30:15;91426.56;;;5.95;100.00
53300;BME280;39187;48.476;8.310;2023-04-30T04:32:41;91422.06;;;5.92;100.00
53300;BME280;39187;48.476;8.310;2023-04-30T04:35:14;91433.75;;;5.98;100.00
53300;BME280;39187;48.476;8.310;2023-04-30T04:37:40;91421.69;;;6.01;100.00
53300;BME280;39187;48.476;8.310;2023-04-30T04:40:07;91422.03;;;6.03;100.00
53300;BME280;39187;48.476;8.310;2023-04-30T04:42:33;91417.91;;;5.88;100.00
53300;BME280;39187;48.476;8.310;2023-04-30T04:44:58;91420.16;;;5.89;100.00
53300;BME280;39187;48.476;8.310;2023-04-30T04:47:24;91426.19;;;6.08;100.00
53300;BME280;39187;48.476;8.310;2023-04-30T04:49:50;91425.81;;;6.02;100.00
53300;BME280;39187;48.476;8.310;2023-04-30T04:52:15;91427.69;;;6.19;100.00
53300;BME280;39187;48.476;8.310;2023-04-30T04:54:40;91438.63;;;6.21;100.00
53300;BME280;39187;48.476;8.310;2023-04-30T04:57:06;91419.41;;;6.07;100.00
53300;BME280;39187;48.476;8.310;2023-04-30T04:59:31;91440.91;;;5.91;100.00
53300;BME280;39187;48.476;8.310;2023-04-30T05:01:57;91423.94;;;5.88;100.00
53300;BME280;39187;48.476;8.310;2023-04-30T05:04:23;91432.19;;;5.83;100.00
53300;BME280;39187;48.476;8.310;2023-04-30T05:06:48;91443.53;;;5.84;100.00
53300;BME280;39187;48.476;8.310;2023-04-30T05:09:14;91427.69;;;6.16;100.00
53300;BME280;39187;48.476;8.310;2023-04-30T05:11:39;91428.44;;;6.09;100.00
53300;BME280;39187;48.476;8.310;2023-04-30T05:14:06;91436.38;;;6.06;100.00
53300;BME280;39187;48.476;8.310;2023-04-30T05:16:32;91440.91;;;5.80;100.00
53300;BME280;39187;48.476;8.310;2023-04-30T05:18:57;91441.28;;;5.68;100.00
53300;BME280;39187;48.476;8.310;2023-04-30T05:21:23;91429.56;;;5.87;100.00
53300;BME280;39187;48.476;8.310;2023-04-30T05:23:50;91430.72;;;6.03;100.00
53300;BME280;39187;48.476;8.310;2023-04-30T05:26:15;91444.66;;;5.83;100.00
53300;BME280;39187;48.476;8.310;2023-04-30T05:28:41;91448.84;;;5.98;100.00
53300;BME280;39187;48.476;8.310;2023-04-30T05:31:07;91456.41;;;5.99;100.00
53300;BME280;39187;48.476;8.310;2023-04-30T05:33:32;91446.56;;;6.14;100.00
53300;BME280;39187;48.476;8.310;2023-04-30T05:35:58;91445.06;;;5.99;100.00
53300;BME280;39187;48.476;8.310;2023-04-30T05:38:24;91446.22;;;5.87;100.00
53300;BME280;39187;48.476;8.310;2023-04-30T05:40:49;91452.19;;;5.77;100.00
53300;BME280;39187;48.476;8.310;2023-04-30T05:43:15;91458.66;;;5.97;100.00
53300;BME280;39187;48.476;8.310;2023-04-30T05:45:41;91448.44;;;6.24;100.00
53300;BME280;39187;48.476;8.310;2023-04-30T05:48:06;91448.44;;;5.78;100.00
53300;BME280;39187;48.476;8.310;2023-04-30T05:50:32;91444.28;;;6.02;100.00
53300;BME280;39187;48.476;8.310;2023-04-30T05:52:57;91447.72;;;6.13;100.00
53300;BME280;39187;48.476;8.310;2023-04-30T05:55:23;91455.63;;;5.92;100.00
53300;BME280;39187;48.476;8.310;2023-04-30T05:57:48;91452.97;;;5.81;100.00
53300;BME280;39187;48.476;8.310;2023-04-30T06:00:14;91450.34;;;6.06;100.00
53300;BME280;39187;48.476;8.310;2023-04-30T06:02:40;91443.19;;;6.07;100.00
53300;BME280;39187;48.476;8.310;2023-04-30T06:05:08;91447.69;;;6.02;100.00
53300;BME280;39187;48.476;8.310;2023-04-30T06:07:34;91438.25;;;6.09;100.00
53300;BME280;39187;48.476;8.310;2023-04-30T06:10:00;91446.94;;;6.06;100.00
53300;BME280;39187;48.476;8.310;2023-04-30T06:12:25;91445.41;;;6.22;100.00
53300;BME280;39187;48.476;8.310;2023-04-30T06:14:51;91439.03;;;6.13;100.00
53300;BME280;39187;48.476;8.310;2023-04-30T06:17:16;91436.78;;;6.00;100.00
53300;BME280;39187;48.476;8.310;2023-04-30T06:19:42;91444.69;;;6.08;100.00
53300;BME280;39187;48.476;8.310;2023-04-30T06:22:07;91440.50;;;6.24;100.00
53300;BME280;39187;48.476;8.310;2023-04-30T06:24:33;91443.19;;;6.14;100.00
53300;BME280;39187;48.476;8.310;2023-04-30T06:26:58;91441.59;;;6.41;100.00
53300;BME280;39187;48.476;8.310;2023-04-30T06:29:24;91433.28;;;6.50;100.00
53300;BME280;39187;48.476;8.310;2023-04-30T06:31:50;91428.81;;;6.22;100.00
53300;BME280;39187;48.476;8.310;2023-04-30T06:34:17;91442.72;;;6.58;100.00
53300;BME280;39187;48.476;8.310;2023-04-30T06:36:42;91445.00;;;6.34;100.00
53300;BME280;39187;48.476;8.310;2023-04-30T06:39:08;91430.31;;;6.23;100.00
53300;BME280;39187;48.476;8.310;2023-04-30T06:41:33;91435.91;;;6.53;100.00
53300;BME280;39187;48.476;8.310;2023-04-30T06:43:59;91432.53;;;6.53;100.00
53300;BME280;39187;48.476;8.310;2023-04-30T06:46:25;91426.13;;;6.43;100.00
53300;BME280;39187;48.476;8.310;2023-04-30T06:48:50;91434.34;;;6.73;100.00
53300;BME280;39187;48.476;8.310;2023-04-30T06:51:16;91432.06;;;6.75;100.00
53300;BME280;39187;48.476;8.310;2023-04-30T06:53:42;91430.19;;;6.76;100.00
53300;BME280;39187;48.476;8.310;2023-04-30T06:56:07;91430.88;;;6.94;100.00
53300;BME280;39187;48.476;8.310;2023-04-30T06:58:33;91431.56;;;7.09;100.00
53300;BME280;39187;48.476;8.310;2023-04-30T07:00:58;91434.31;;;6.80;100.00
53300;BME280;39187;48.476;8.310;2023-04-30T07:03:24;91425.19;;;6.96;100.00
53300;BME280;39187;48.476;8.310;2023-04-30T07:05:49;91433.28;;;7.37;100.00
53300;BME280;39187;48.476;8.310;2023-04-30T07:08:16;91427.59;;;7.42;100.00
53300;BME280;39187;48.476;8.310;2023-04-30T07:10:41;91426.34;;;7.57;100.00
53300;BME280;39187;48.476;8.310;2023-04-30T07:13:07;91418.75;;;7.66;100.00
53300;BME280;39187;48.476;8.310;2023-04-30T07:15:33;91424.81;;;8.11;100.00
53300;BME280;39187;48.476;8.310;2023-04-30T07:17:58;91435.16;;;7.98;100.00
53300;BME280;39187;48.476;8.310;2023-04-30T07:20:24;91424.31;;;8.23;100.00
53300;BME280;39187;48.476;8.310;2023-04-30T07:22:50;91428.91;;;8.64;100.00
53300;BME280;39187;48.476;8.310;2023-04-30T07:25:15;91424.50;;;8.47;100.00
53300;BME280;39187;48.476;8.310;2023-04-30T07:27:41;91429.28;;;8.62;100.00
53300;BME280;39187;48.476;8.310;2023-04-30T07:30:07;91430.06;;;8.93;100.00
53300;BME280;39187;48.476;8.310;2023-04-30T07:32:36;91427.19;;;9.11;100.00
53300;BME280;39187;48.476;8.310;2023-04-30T07:35:03;91434.56;;;9.00;100.00
53300;BME280;39187;48.476;8.310;2023-04-30T07:37:29;91431.78;;;8.76;100.00
53300;BME280;39187;48.476;8.310;2023-04-30T07:39:54;91425.75;;;9.06;100.00
53300;BME280;39187;48.476;8.310;2023-04-30T07:42:21;91432.91;;;9.66;100.00
53300;BME280;39187;48.476;8.310;2023-04-30T07:44:46;91437.59;;;8.98;100.00
53300;BME280;39187;48.476;8.310;2023-04-30T07:47:13;91437.25;;;9.84;100.00
53300;BME280;39187;48.476;8.310;2023-04-30T07:49:39;91441.59;;;9.97;97.04
53300;BME280;39187;48.476;8.310;2023-04-30T07:52:04;91426.72;;;9.19;96.46
53300;BME280;39187;48.476;8.310;2023-04-30T07:54:30;91426.75;;;9.46;98.62
53300;BME280;39187;48.476;8.310;2023-04-30T07:56:56;91440.59;;;9.88;95.78
53300;BME280;39187;48.476;8.310;2023-04-30T07:59:21;91431.66;;;10.01;93.61
53300;BME280;39187;48.476;8.310;2023-04-30T08:01:50;91456.25;;;9.25;93.41
53300;BME280;39187;48.476;8.310;2023-04-30T08:04:15;91449.13;;;8.84;96.94
53300;BME280;39187;48.476;8.310;2023-04-30T08:06:41;91451.09;;;9.11;97.31
53300;BME280;39187;48.476;8.310;2023-04-30T08:09:06;91434.31;;;9.48;97.19
53300;BME280;39187;48.476;8.310;2023-04-30T08:11:32;91442.75;;;9.96;89.64
53300;BME280;39187;48.476;8.310;2023-04-30T08:13:58;91440.88;;;10.20;90.17
53300;BME280;39187;48.476;8.310;2023-04-30T08:16:24;91448.81;;;10.24;86.59
53300;BME280;39187;48.476;8.310;2023-04-30T08:18:50;91422.16;;;10.70;87.74
53300;BME280;39187;48.476;8.310;2023-04-30T08:21:15;91443.19;;;11.04;82.80
53300;BME280;39187;48.476;8.310;2023-04-30T08:23:42;91426.34;;;11.11;80.04
53300;BME280;39187;48.476;8.310;2023-04-30T08:26:08;91424.50;;;10.22;82.17
53300;BME280;39187;48.476;8.310;2023-04-30T08:28:34;91423.44;;;10.62;91.52
53300;BME280;39187;48.476;8.310;2023-04-30T08:30:59;91451.41;;;10.27;86.53
53300;BME280;39187;48.476;8.310;2023-04-30T08:33:25;91436.22;;;10.71;86.39
53300;BME280;39187;48.476;8.310;2023-04-30T08:35:50;91438.06;;;10.74;90.69
53300;BME280;39187;48.476;8.310;2023-04-30T08:38:16;91437.09;;;10.64;82.97
53300;BME280;39187;48.476;8.310;2023-04-30T08:40:48;91437.44;;;10.66;83.80
53300;BME280;39187;48.476;8.310;2023-04-30T08:43:17;91438.25;;;10.63;76.80
53300;BME280;39187;48.476;8.310;2023-04-30T08:45:43;91436.53;;;10.53;75.62
53300;BME280;39187;48.476;8.310;2023-04-30T08:48:10;91447.25;;;10.50;76.58
53300;BME280;39187;48.476;8.310;2023-04-30T08:50:36;91458.41;;;10.14;78.02
53300;BME280;39187;48.476;8.310;2023-04-30T08:53:02;91449.59;;;9.94;81.58
53300;BME280;39187;48.476;8.310;2023-04-30T08:55:28;91453.97;;;10.07;82.47
53300;BME280;39187;48.476;8.310;2023-04-30T08:57:54;91466.38;;;9.64;81.51
53300;BME280;39187;48.476;8.310;2023-04-30T09:00:19;91460.78;;;9.85;80.20
53300;BME280;39187;48.476;8.310;2023-04-30T09:02:46;91458.28;;;9.44;84.84
53300;BME280;39187;48.476;8.310;2023-04-30T09:05:13;91469.16;;;9.23;86.22
53300;BME280;39187;48.476;8.310;2023-04-30T09:07:42;91467.34;;;9.16;89.60
53300;BME280;39187;48.476;8.310;2023-04-30T09:10:18;91462.97;;;9.63;86.96
53300;BME280;39187;48.476;8.310;2023-04-30T09:13:01;91454.97;;;9.37;89.71
53300;BME280;39187;48.476;8.310;2023-04-30T09:15:28;91459.78;;;9.45;90.64
53300;BME280;39187;48.476;8.310;2023-04-30T09:18:18;91453.50;;;9.02;90.74
53300;BME280;39187;48.476;8.310;2023-04-30T09:20:55;91465.72;;;9.26;91.44
53300;BME280;39187;48.476;8.310;2023-04-30T09:23:22;91456.41;;;9.72;90.15
53300;BME280;39187;48.476;8.310;2023-04-30T09:25:47;91450.88;;;9.59;89.70
53300;BME280;39187;48.476;8.310;2023-04-30T09:28:13;91465.59;;;9.37;91.60
53300;BME280;39187;48.476;8.310;2023-04-30T09:30:39;91462.69;;;9.28;92.76
53300;BME280;39187;48.476;8.310;2023-04-30T09:33:05;91466.13;;;9.24;93.30
53300;BME280;39187;48.476;8.310;2023-04-30T09:35:33;91468.63;;;9.35;92.94
53300;BME280;39187;48.476;8.310;2023-04-30T09:38:00;91473.50;;;9.71;90.82
53300;BME280;39187;48.476;8.310;2023-04-30T09:40:39;91465.13;;;9.42;92.65
53300;BME280;39187;48.476;8.310;2023-04-30T09:43:06;91468.97;;;9.41;92.61
53300;BME280;39187;48.476;8.310;2023-04-30T09:45:45;91463.91;;;9.77;90.86
53300;BME280;39187;48.476;8.310;2023-04-30T09:48:22;91466.38;;;9.91;90.07
53300;BME280;39187;48.476;8.310;2023-04-30T09:50:49;91461.28;;;10.00;85.12
53300;BME280;39187;48.476;8.310;2023-04-30T09:53:15;91468.41;;;9.80;87.04
53300;BME280;39187;48.476;8.310;2023-04-30T09:55:45;91468.56;;;9.69;86.13
53300;BME280;39187;48.476;8.310;2023-04-30T09:58:12;91471.22;;;9.96;89.06
53300;BME280;39187;48.476;8.310;2023-04-30T10:00:39;91460.34;;;9.87;88.02
53300;BME280;39187;48.476;8.310;2023-04-30T10:03:09;91473.78;;;9.76;85.82
53300;BME280;39187;48.476;8.310;2023-04-30T10:05:42;91478.41;;;9.72;84.96
53300;BME280;39187;48.476;8.310;2023-04-30T10:08:26;91459.56;;;10.17;83.85
53300;BME280;39187;48.476;8.310;2023-04-30T10:11:14;91456.38;;;10.25;80.15
53300;BME280;39187;48.476;8.310;2023-04-30T10:16:42;91443.44;;;10.00;77.83
53300;BME280;39187;48.476;8.310;2023-04-30T10:19:14;91445.50;;;9.89;83.49
53300;BME280;39187;48.476;8.310;2023-04-30T10:21:42;91460.69;;;9.62;86.42
53300;BME280;39187;48.476;8.310;2023-04-30T10:24:12;91453.75;;;9.41;88.63
53300;BME280;39187;48.476;8.310;2023-04-30T10:26:39;91446.84;;;9.74;86.61
53300;BME280;39187;48.476;8.310;2023-04-30T10:29:06;91449.22;;;9.69;87.83
53300;BME280;39187;48.476;8.310;2023-04-30T10:31:32;91430.66;;;9.92;84.84
53300;BME280;39187;48.476;8.310;2023-04-30T10:36:56;91450.91;;;9.82;84.59
53300;BME280;39187;48.476;8.310;2023-04-30T10:39:25;91431.97;;;9.80;83.99
53300;BME280;39187;48.476;8.310;2023-04-30T10:42:01;91453.13;;;9.87;80.18
53300;BME280;39187;48.476;8.310;2023-04-30T10:44:31;91437.78;;;9.72;82.18
53300;BME280;39187;48.476;8.310;2023-04-30T10:46:59;91431.06;;;9.90;83.42
53300;BME280;39187;48.476;8.310;2023-04-30T10:49:25;91424.06;;;10.00;83.89
53300;BME280;39187;48.476;8.310;2023-04-30T10:51:52;91416.94;;;10.63;81.86
53300;BME280;39187;48.476;8.310;2023-04-30T10:54:27;91414.91;;;10.04;85.11
53300;BME280;39187;48.476;8.310;2023-04-30T10:56:54;91428.44;;;9.87;87.96
53300;BME280;39187;48.476;8.310;2023-04-30T10:59:34;91416.81;;;9.50;89.50
53300;BME280;39187;48.476;8.310;2023-04-30T11:02:00;91422.63;;;9.69;86.68
53300;BME280;39187;48.476;8.310;2023-04-30T11:04:26;91418.84;;;10.20;84.62
53300;BME280;39187;48.476;8.310;2023-04-30T11:09:40;91419.59;;;10.20;82.78
53300;BME280;39187;48.476;8.310;2023-04-30T11:12:19;91426.53;;;10.37;83.15
53300;BME280;39187;48.476;8.310;2023-04-30T11:14:59;91417.81;;;10.57;80.99
53300;BME280;39187;48.476;8.310;2023-04-30T11:17:26;91424.97;;;10.17;83.57
53300;BME280;39187;48.476;8.310;2023-04-30T11:19:52;91433.13;;;10.29;80.94
53300;BME280;39187;48.476;8.310;2023-04-30T11:22:23;91435.50;;;10.24;83.51
53300;BME280;39187;48.476;8.310;2023-04-30T11:27:28;91432.00;;;10.03;84.93
53300;BME280;39187;48.476;8.310;2023-04-30T11:29:55;91427.19;;;9.95;85.71
53300;BME280;39187;48.476;8.310;2023-04-30T11:32:22;91415.72;;;10.48;82.71
53300;BME280;39187;48.476;8.310;2023-04-30T11:34:48;91421.50;;;9.93;84.49
53300;BME280;39187;48.476;8.310;2023-04-30T11:37:20;91427.53;;;10.24;81.72
53300;BME280;39187;48.476;8.310;2023-04-30T11:39:47;91430.19;;;9.47;87.06
53300;BME280;39187;48.476;8.310;2023-04-30T11:42:19;91415.75;;;9.98;85.40
53300;BME280;39187;48.476;8.310;2023-04-30T11:44:45;91415.41;;;9.96;84.19
53300;BME280;39187;48.476;8.310;2023-04-30T11:47:14;91424.16;;;9.93;86.56
53300;BME280;39187;48.476;8.310;2023-04-30T11:49:40;91400.78;;;10.07;84.60
53300;BME280;39187;48.476;8.310;2023-04-30T11:52:06;91414.47;;;10.06;84.51
53300;BME280;39187;48.476;8.310;2023-04-30T11:54:37;91403.25;;;9.95;84.99
53300;BME280;39187;48.476;8.310;2023-04-30T11:57:04;91393.38;;;9.95;84.60
53300;BME280;39187;48.476;8.310;2023-04-30T11:59:30;91405.53;;;9.96;86.33
53300;BME280;39187;48.476;8.310;2023-04-30T12:01:57;91417.63;;;10.24;84.07
53300;BME280;39187;48.476;8.310;2023-04-30T12:04:23;91401.81;;;10.17;85.70
53300;BME280;39187;48.476;8.310;2023-04-30T12:06:48;91412.50;;;9.87;82.31
53300;BME280;39187;48.476;8.310;2023-04-30T12:09:14;91406.28;;;9.97;83.46
53300;BME280;39187;48.476;8.310;2023-04-30T12:11:40;91395.78;;;10.36;81.05
53300;BME280;39187;48.476;8.310;2023-04-30T12:14:08;91398.25;;;10.47;79.87
53300;BME280;39187;48.476;8.310;2023-04-30T12:16:47;91400.63;;;10.41;81.31
53300;BME280;39187;48.476;8.310;2023-04-30T12:19:17;91397.81;;;10.29;81.12
53300;BME280;39187;48.476;8.310;2023-04-30T12:21:43;91425.84;;;10.06;81.72
53300;BME280;39187;48.476;8.310;2023-04-30T12:24:15;91408.81;;;10.04;79.75
53300;BME280;39187;48.476;8.310;2023-04-30T12:26:41;91403.28;;;10.18;77.22
53300;BME280;39187;48.476;8.310;2023-04-30T12:29:17;91399.59;;;10.35;75.67
53300;BME280;39187;48.476;8.310;2023-04-30T12:31:44;91389.94;;;10.22;77.77
53300;BME280;39187;48.476;8.310;2023-04-30T12:34:12;91398.66;;;10.22;77.82
53300;BME280;39187;48.476;8.310;2023-04-30T12:36:40;91393.03;;;10.40;77.21
53300;BME280;39187;48.476;8.310;2023-04-30T12:39:12;91401.91;;;10.33;76.93
53300;BME280;39187;48.476;8.310;2023-04-30T12:41:45;91403.44;;;10.54;77.37
53300;BME280;39187;48.476;8.310;2023-04-30T12:44:21;91397.50;;;10.66;76.83
53300;BME280;39187;48.476;8.310;2023-04-30T12:46:49;91400.66;;;10.61;75.29
53300;BME280;39187;48.476;8.310;2023-04-30T12:49:32;91395.19;;;10.49;74.86
53300;BME280;39187;48.476;8.310;2023-04-30T12:52:02;91397.03;;;10.71;72.79
53300;BME280;39187;48.476;8.310;2023-04-30T12:54:30;91391.66;;;10.75;74.52
53300;BME280;39187;48.476;8.310;2023-04-30T12:57:04;91389.06;;;10.91;72.48
53300;BME280;39187;48.476;8.310;2023-04-30T12:59:37;91389.84;;;11.08;72.05
53300;BME280;39187;48.476;8.310;2023-04-30T13:02:11;91398.59;;;10.89;69.88
53300;BME280;39187;48.476;8.310;2023-04-30T13:04:38;91386.25;;;10.78;71.23
53300;BME280;39187;48.476;8.310;2023-04-30T13:07:04;91387.34;;;10.61;70.55
53300;BME280;39187;48.476;8.310;2023-04-30T13:09:33;91387.47;;;10.54;69.89
53300;BME280;39187;48.476;8.310;2023-04-30T13:11:59;91387.19;;;10.49;72.61
53300;BME280;39187;48.476;8.310;2023-04-30T13:14:25;91382.19;;;10.51;72.54
53300;BME280;39187;48.476;8.310;2023-04-30T13:16:51;91390.56;;;10.92;71.20
53300;BME280;39187;48.476;8.310;2023-04-30T13:19:18;91383.56;;;10.39;74.42
53300;BME280;39187;48.476;8.310;2023-04-30T13:21:44;91378.88;;;10.66;72.61
53300;BME280;39187;48.476;8.310;2023-04-30T13:24:09;91371.31;;;10.22;72.80